SBSP/CGH METAR and TAF weather

Enter ICAO airport designator
Station Type Date Time Source
SBSP METAR 2021/03/06 02:28 UTC NOAA

SBSP 060228Z AUTO 33010KT 6000 BKN011 BKN014 21/18 Q1012


Station Type Date Time Source
SBSP Decoded METAR 2021/03/06 02:28 UTC NOAA

Sao Paulo/Congonhas Aeroporto, Brazil (SBSP) 23-37S 046-39W 802M
Mar 05, 2021 - 09:28 PM EST / 2021.03.06 0228 UTC
Wind: from the NNW (330 degrees) at 12 MPH (10 KT):0
Visibility: 3 mile(s):0
Sky conditions: mostly cloudy
Temperature: 69 F (21 C)
Dew Point: 64 F (18 C)
Relative Humidity: 82%
Pressure (altimeter): 29.88 in. Hg (1012 hPa)
ob: SBSP 060228Z AUTO 33010KT 6000 BKN011 BKN014 21/18 Q1012
cycle: 2

Station Type Date Time Source
SBSP TAF 2021/03/06 06:54 UTC NOAA

TAF SBSP 051841Z 0606/0618 33015KT 8000 BKN013 TN19/0609Z TX26/0617Z
BECMG 0610/0612 BKN013
BECMG 0613/0615 NSW BKN020
TEMPO 0616/0618 32012KT SHRA BKN020 FEW040TCU
RMK PHG

Example: see airport list